createdAt,value
2018-06-23T00:00:37.391Z,14.43
2018-06-23T00:01:37.395Z,14.4
2018-06-23T00:02:37.442Z,14.4
2018-06-23T00:03:37.392Z,14.38
2018-06-23T00:04:37.412Z,14.4
2018-06-23T00:05:37.393Z,14.38
2018-06-23T00:06:37.430Z,14.33
2018-06-23T00:07:37.403Z,14.31
2018-06-23T00:08:37.432Z,14.32
2018-06-23T00:09:37.410Z,14.28
2018-06-23T00:10:37.437Z,14.19
2018-06-23T00:11:37.398Z,14.01
2018-06-23T00:12:37.380Z,13.98
2018-06-23T00:13:37.401Z,13.98
2018-06-23T00:14:37.391Z,13.98
2018-06-23T00:15:37.398Z,13.87
2018-06-23T00:16:37.421Z,13.86
2018-06-23T00:17:37.391Z,13.84
2018-06-23T00:18:37.471Z,13.83
2018-06-23T00:19:37.583Z,13.83
2018-06-23T00:20:37.428Z,13.83
2018-06-23T00:21:37.404Z,13.82
2018-06-23T00:22:37.521Z,13.76
2018-06-23T00:23:37.443Z,13.74
2018-06-23T00:24:37.412Z,13.74
2018-06-23T00:25:37.423Z,13.76
2018-06-23T00:26:37.428Z,13.74
2018-06-23T00:27:37.466Z,13.67
2018-06-23T00:28:37.397Z,13.56
2018-06-23T00:29:37.405Z,13.59
2018-06-23T00:30:37.424Z,13.57
2018-06-23T00:31:37.398Z,13.57
2018-06-23T00:32:37.427Z,13.63
2018-06-23T00:33:37.386Z,13.66
2018-06-23T00:34:37.422Z,13.63
2018-06-23T00:35:37.416Z,13.66
2018-06-23T00:36:37.408Z,13.67
2018-06-23T00:37:37.412Z,13.67
2018-06-23T00:38:37.561Z,13.67
2018-06-23T00:39:37.404Z,13.67
2018-06-23T00:40:37.459Z,13.67
2018-06-23T00:41:37.402Z,13.69
2018-06-23T00:42:37.410Z,13.66
2018-06-23T00:43:37.406Z,13.67
2018-06-23T00:44:37.410Z,13.67
2018-06-23T00:45:37.448Z,13.67
2018-06-23T00:46:37.574Z,13.69
2018-06-23T00:47:37.418Z,13.69
2018-06-23T00:48:37.449Z,13.66
2018-06-23T00:49:37.443Z,13.66
2018-06-23T00:50:37.561Z,13.67
2018-06-23T00:51:37.437Z,13.67
2018-06-23T00:52:37.493Z,13.72
2018-06-23T00:53:37.582Z,13.72
2018-06-23T00:54:37.420Z,13.72
2018-06-23T00:55:37.426Z,13.74
2018-06-23T00:56:37.439Z,13.73
2018-06-23T00:57:37.485Z,13.76
2018-06-23T00:58:37.480Z,13.73
2018-06-23T00:59:37.562Z,13.72
2018-06-23T01:00:37.462Z,13.73
2018-06-23T01:01:37.525Z,13.74
2018-06-23T01:02:37.423Z,13.7
2018-06-23T01:03:37.447Z,13.69
2018-06-23T01:04:37.479Z,13.73
2018-06-23T01:05:37.526Z,13.72
2018-06-23T01:06:37.589Z,13.72
2018-06-23T01:07:37.406Z,13.7
2018-06-23T01:08:37.465Z,13.7
2018-06-23T01:09:37.471Z,13.67
2018-06-23T01:10:37.454Z,13.67
2018-06-23T01:11:37.456Z,13.67
2018-06-23T01:12:37.454Z,13.69
2018-06-23T01:13:37.430Z,13.67
2018-06-23T01:14:37.416Z,13.66
2018-06-23T01:15:37.459Z,13.64
2018-06-23T01:16:37.428Z,13.62
2018-06-23T01:17:37.467Z,13.59
2018-06-23T01:18:37.433Z,13.56
2018-06-23T01:19:37.427Z,13.57
2018-06-23T01:20:37.421Z,13.53
2018-06-23T01:21:37.435Z,13.53
2018-06-23T01:22:37.497Z,13.49
2018-06-23T01:23:37.445Z,13.46
2018-06-23T01:24:37.430Z,13.45
2018-06-23T01:25:37.464Z,13.43
2018-06-23T01:26:37.432Z,13.46
2018-06-23T01:27:37.452Z,13.42
2018-06-23T01:28:37.440Z,13.41
2018-06-23T01:29:37.451Z,13.28
2018-06-23T01:30:37.443Z,13.27
2018-06-23T01:31:37.432Z,13.31
2018-06-23T01:32:37.704Z,13.27
2018-06-23T01:33:37.636Z,13.28
2018-06-23T01:34:37.478Z,13.27
2018-06-23T01:35:37.520Z,13.29
2018-06-23T01:36:37.525Z,13.22
2018-06-23T01:37:37.488Z,13.17
2018-06-23T01:38:37.507Z,13.14
2018-06-23T01:39:37.474Z,13.06
2018-06-23T01:40:37.818Z,13.08
2018-06-23T01:41:37.458Z,13.04
2018-06-23T01:42:37.550Z,12.99
2018-06-23T01:43:37.483Z,12.99
2018-06-23T01:44:37.465Z,12.97
2018-06-23T01:45:37.485Z,12.9
2018-06-23T01:46:37.474Z,12.88
2018-06-23T01:47:37.453Z,12.87
2018-06-23T01:48:37.485Z,12.87
2018-06-23T01:49:37.496Z,12.8
2018-06-23T01:50:37.458Z,12.8
2018-06-23T01:51:37.469Z,12.79
2018-06-23T01:52:37.469Z,12.76
2018-06-23T01:53:37.452Z,12.7
2018-06-23T01:54:37.601Z,12.66
2018-06-23T01:55:37.464Z,12.62
2018-06-23T01:56:37.587Z,12.66
2018-06-23T01:57:37.580Z,12.66
2018-06-23T01:58:37.472Z,12.67
2018-06-23T01:59:37.520Z,12.6
2018-06-23T02:00:37.470Z,12.62
2018-06-23T02:01:37.572Z,12.62
2018-06-23T02:02:37.452Z,12.63
2018-06-23T02:03:37.541Z,12.6
2018-06-23T02:04:37.492Z,12.62
2018-06-23T02:05:37.500Z,12.66
2018-06-23T02:06:37.495Z,12.66
2018-06-23T02:07:37.622Z,12.63
2018-06-23T02:08:37.464Z,12.6
2018-06-23T02:09:37.561Z,12.6
2018-06-23T02:10:37.460Z,12.6
2018-06-23T02:11:37.490Z,12.62
2018-06-23T02:12:37.477Z,12.6
2018-06-23T02:13:37.469Z,12.62
2018-06-23T02:14:37.505Z,12.63
2018-06-23T02:15:37.468Z,12.63
2018-06-23T02:16:37.473Z,12.65
2018-06-23T02:17:37.482Z,12.66
2018-06-23T02:18:37.485Z,12.65
2018-06-23T02:19:37.500Z,12.62
2018-06-23T02:20:37.478Z,12.62
2018-06-23T02:21:37.500Z,12.62
2018-06-23T02:22:37.475Z,12.63
2018-06-23T02:23:37.482Z,12.62
2018-06-23T02:24:37.471Z,12.63
2018-06-23T02:25:37.470Z,12.65
2018-06-23T02:26:37.474Z,12.6
2018-06-23T02:27:37.475Z,12.59
2018-06-23T02:28:37.481Z,12.6
2018-06-23T02:29:37.486Z,12.62
2018-06-23T02:30:37.469Z,12.63
2018-06-23T02:31:37.482Z,12.62
2018-06-23T02:32:37.501Z,12.62
2018-06-23T02:33:37.490Z,12.62
2018-06-23T02:34:37.496Z,12.6
2018-06-23T02:35:37.498Z,12.59
2018-06-23T02:36:37.470Z,12.59
2018-06-23T02:37:37.498Z,12.56
2018-06-23T02:38:37.486Z,12.52
2018-06-23T02:39:37.538Z,12.49
2018-06-23T02:40:37.519Z,12.46
2018-06-23T02:41:37.489Z,12.53
2018-06-23T02:42:37.645Z,12.53
2018-06-23T02:43:37.501Z,12.51
2018-06-23T02:44:37.490Z,12.51
2018-06-23T02:45:37.486Z,12.45
2018-06-23T02:46:37.509Z,12.31
2018-06-23T02:47:37.500Z,12.28
2018-06-23T02:48:37.565Z,12.27
2018-06-23T02:49:37.910Z,12.13
2018-06-23T02:50:37.501Z,12
2018-06-23T02:51:37.693Z,11.86
2018-06-23T02:52:37.547Z,11.93
2018-06-23T02:53:37.610Z,11.96
2018-06-23T02:54:37.560Z,11.96
2018-06-23T02:55:37.488Z,11.94
2018-06-23T02:56:37.535Z,12
2018-06-23T02:57:37.507Z,12.03
2018-06-23T02:58:37.900Z,12.03
2018-06-23T02:59:37.551Z,11.94
2018-06-23T03:00:37.524Z,12.01
2018-06-23T03:01:37.520Z,12.01
2018-06-23T03:02:37.511Z,12.05
2018-06-23T03:03:37.589Z,12.1
2018-06-23T03:04:37.525Z,12.05
2018-06-23T03:05:37.500Z,12.05
2018-06-23T03:06:37.507Z,12.07
2018-06-23T03:07:37.493Z,12.07
2018-06-23T03:08:37.512Z,12.05
2018-06-23T03:09:37.548Z,12.1
2018-06-23T03:10:37.506Z,12.07
2018-06-23T03:11:37.548Z,12.07
2018-06-23T03:12:37.506Z,11.96
2018-06-23T03:13:37.509Z,11.94
2018-06-23T03:14:37.493Z,11.94
2018-06-23T03:15:37.571Z,12
2018-06-23T03:16:37.527Z,12
2018-06-23T03:17:37.568Z,12.01
2018-06-23T03:18:37.519Z,12.01
2018-06-23T03:19:37.540Z,12
2018-06-23T03:20:37.693Z,12
2018-06-23T03:21:37.567Z,12.01
2018-06-23T03:22:37.621Z,11.98
2018-06-23T03:23:37.512Z,12.01
2018-06-23T03:24:37.523Z,12
2018-06-23T03:25:37.526Z,12
2018-06-23T03:26:37.605Z,11.97
2018-06-23T03:27:37.571Z,11.96
2018-06-23T03:28:37.557Z,11.92
2018-06-23T03:29:37.520Z,11.92
2018-06-23T03:30:37.498Z,11.94
2018-06-23T03:31:37.496Z,11.94
2018-06-23T03:32:37.515Z,11.96
2018-06-23T03:33:37.502Z,11.89
2018-06-23T03:34:37.531Z,11.83
2018-06-23T03:35:37.509Z,11.84
2018-06-23T03:36:37.532Z,11.86
2018-06-23T03:37:37.535Z,11.89
2018-06-23T03:38:37.530Z,11.82
2018-06-23T03:39:37.527Z,11.87
2018-06-23T03:40:37.525Z,11.87
2018-06-23T03:41:37.500Z,11.86
2018-06-23T03:42:37.497Z,11.83
2018-06-23T03:43:37.520Z,11.83
2018-06-23T03:44:37.505Z,11.86
2018-06-23T03:45:37.508Z,11.84
2018-06-23T03:46:37.515Z,11.87
2018-06-23T03:47:37.524Z,11.86
2018-06-23T03:48:37.561Z,11.83
2018-06-23T03:49:37.529Z,11.87
2018-06-23T03:50:37.533Z,11.89
2018-06-23T03:51:37.544Z,11.9
2018-06-23T03:52:37.560Z,11.93
2018-06-23T03:53:37.617Z,11.92
2018-06-23T03:54:37.560Z,12
2018-06-23T03:55:37.560Z,11.97
2018-06-23T03:56:37.566Z,11.97
2018-06-23T03:57:37.618Z,11.98
2018-06-23T03:58:37.519Z,11.97
2018-06-23T03:59:37.557Z,12.01
2018-06-23T04:00:37.578Z,12.03
2018-06-23T04:01:37.533Z,12.01
2018-06-23T04:02:37.507Z,12.01
2018-06-23T04:03:37.548Z,12.01
2018-06-23T04:04:37.535Z,11.98
2018-06-23T04:05:37.595Z,12.03
2018-06-23T04:06:37.535Z,12.05
2018-06-23T04:07:37.549Z,12.07
2018-06-23T04:08:37.526Z,12.07
2018-06-23T04:09:37.744Z,12.04
2018-06-23T04:10:37.533Z,12.01
2018-06-23T04:11:37.582Z,12.01
2018-06-23T04:12:37.603Z,12.05
2018-06-23T04:13:37.748Z,12.05
2018-06-23T04:14:37.641Z,12.08
2018-06-23T04:15:37.706Z,12.1
2018-06-23T04:16:37.546Z,12.05
2018-06-23T04:17:37.534Z,11.93
2018-06-23T04:18:37.541Z,12.01
2018-06-23T04:19:37.536Z,11.97
2018-06-23T04:20:37.564Z,11.98
2018-06-23T04:21:37.566Z,12
2018-06-23T04:22:37.822Z,12.03
2018-06-23T04:23:37.529Z,12.05
2018-06-23T04:24:37.531Z,12.1
2018-06-23T04:25:37.554Z,12.1
2018-06-23T04:26:37.577Z,12.16
2018-06-23T04:27:37.628Z,12.16
2018-06-23T04:28:37.584Z,12.14
2018-06-23T04:29:37.560Z,12.18
2018-06-23T04:30:37.533Z,12.2
2018-06-23T04:31:37.609Z,12.21
2018-06-23T04:32:37.764Z,12.21
2018-06-23T04:33:37.716Z,12.27
2018-06-23T04:34:37.550Z,12.29
2018-06-23T04:35:37.544Z,12.31
2018-06-23T04:36:37.542Z,12.31
2018-06-23T04:37:37.663Z,12.31
2018-06-23T04:38:37.528Z,12.2
2018-06-23T04:39:37.582Z,11.89
2018-06-23T04:40:37.550Z,11.96
2018-06-23T04:41:37.555Z,12.03
2018-06-23T04:42:37.583Z,12.1
2018-06-23T04:43:37.555Z,12.14
2018-06-23T04:44:37.568Z,12.14
2018-06-23T04:45:37.594Z,12.11
2018-06-23T04:46:37.581Z,12.16
2018-06-23T04:47:37.550Z,12.23
2018-06-23T04:48:37.549Z,12.23
2018-06-23T04:49:37.548Z,12.27
2018-06-23T04:50:37.559Z,12.27
2018-06-23T04:51:37.565Z,12.25
2018-06-23T04:52:37.620Z,12.27
2018-06-23T04:53:37.566Z,12.27
2018-06-23T04:54:37.581Z,12.31
2018-06-23T04:55:37.711Z,12.31
2018-06-23T04:56:37.571Z,12.27
2018-06-23T04:57:37.624Z,12.21
2018-06-23T04:58:37.582Z,12.25
2018-06-23T04:59:37.561Z,12.29
2018-06-23T05:00:37.610Z,12.34
2018-06-23T05:01:37.660Z,12.38
2018-06-23T05:02:37.646Z,12.38
2018-06-23T05:03:38.015Z,12.34
2018-06-23T05:04:37.549Z,12.32
2018-06-23T05:05:37.565Z,12.39
2018-06-23T05:06:37.788Z,12.44
2018-06-23T05:07:37.592Z,12.45
2018-06-23T05:08:37.556Z,12.32
2018-06-23T05:09:37.964Z,12.38
2018-06-23T05:10:37.553Z,12.42
2018-06-23T05:11:37.667Z,12.48
2018-06-23T05:12:37.622Z,12.41
2018-06-23T05:13:37.705Z,12.44
2018-06-23T05:14:37.681Z,12.39
2018-06-23T05:15:37.595Z,12.46
2018-06-23T05:16:37.885Z,12.49
2018-06-23T05:17:37.573Z,12.52
2018-06-23T05:18:37.718Z,12.49
2018-06-23T05:19:37.580Z,12.41
2018-06-23T05:20:37.725Z,12.37
2018-06-23T05:21:37.564Z,12.32
2018-06-23T05:22:37.609Z,12.34
2018-06-23T05:23:37.574Z,12.32
2018-06-23T05:24:37.730Z,12.37
2018-06-23T05:25:37.572Z,12.39
2018-06-23T05:26:37.596Z,12.41
2018-06-23T05:27:37.577Z,12.44
2018-06-23T05:28:37.618Z,12.46
2018-06-23T05:29:37.636Z,12.48
2018-06-23T05:30:37.884Z,12.44
2018-06-23T05:31:37.680Z,12.45
2018-06-23T05:32:37.628Z,12.42
2018-06-23T05:33:37.597Z,12.44
2018-06-23T05:34:37.591Z,12.52
2018-06-23T05:35:37.593Z,12.59
2018-06-23T05:36:37.576Z,12.49
2018-06-23T05:37:37.763Z,12.53
2018-06-23T05:38:37.580Z,12.52
2018-06-23T05:39:37.572Z,12.52
2018-06-23T05:40:37.608Z,12.56
2018-06-23T05:41:37.594Z,12.53
2018-06-23T05:42:37.585Z,12.56
2018-06-23T05:43:37.585Z,12.62
2018-06-23T05:44:37.601Z,12.6
2018-06-23T05:45:37.644Z,12.65
2018-06-23T05:46:37.634Z,12.67
2018-06-23T05:47:37.629Z,12.74
2018-06-23T05:48:37.618Z,12.77
2018-06-23T05:49:37.590Z,12.84
2018-06-23T05:50:37.616Z,12.87
2018-06-23T05:51:37.673Z,12.82
2018-06-23T05:52:37.638Z,12.83
2018-06-23T05:53:37.665Z,12.9
2018-06-23T05:54:37.610Z,12.87
2018-06-23T05:55:37.603Z,12.9
2018-06-23T05:56:37.682Z,12.91
2018-06-23T05:57:37.594Z,12.99
2018-06-23T05:58:37.624Z,13
2018-06-23T05:59:37.783Z,12.99
2018-06-23T06:00:37.792Z,13.06
2018-06-23T06:01:37.649Z,13.07
2018-06-23T06:02:37.633Z,13.1
2018-06-23T06:03:37.605Z,13.08
2018-06-23T06:04:37.658Z,13.08
2018-06-23T06:05:37.801Z,13.15
2018-06-23T06:06:37.614Z,13.13
2018-06-23T06:07:37.611Z,13.1
2018-06-23T06:08:37.616Z,13.13
2018-06-23T06:09:37.604Z,13.15
2018-06-23T06:10:37.666Z,13.15
2018-06-23T06:11:37.693Z,13.14
2018-06-23T06:12:37.604Z,13.08
2018-06-23T06:13:37.606Z,13.14
2018-06-23T06:14:37.690Z,13.15
2018-06-23T06:15:37.683Z,13.19
2018-06-23T06:16:37.667Z,13.21
2018-06-23T06:17:37.618Z,13.25
2018-06-23T06:18:37.609Z,13.34
2018-06-23T06:19:37.645Z,13.35
2018-06-23T06:20:37.624Z,13.38
2018-06-23T06:21:37.643Z,13.39
2018-06-23T06:22:37.616Z,13.41
2018-06-23T06:23:37.659Z,13.42
2018-06-23T06:24:37.616Z,13.43
2018-06-23T06:25:37.634Z,13.49
2018-06-23T06:26:37.624Z,13.52
2018-06-23T06:27:37.635Z,13.59
2018-06-23T06:28:37.619Z,13.63
2018-06-23T06:29:37.596Z,13.59
2018-06-23T06:30:37.602Z,13.56
2018-06-23T06:31:37.598Z,13.53
2018-06-23T06:32:37.620Z,13.43
2018-06-23T06:33:37.625Z,13.42
2018-06-23T06:34:37.675Z,13.45
2018-06-23T06:35:37.742Z,13.47
2018-06-23T06:36:37.613Z,13.45
2018-06-23T06:37:37.628Z,13.43
2018-06-23T06:38:37.636Z,13.38
2018-06-23T06:39:37.609Z,13.41
2018-06-23T06:40:37.639Z,13.45
2018-06-23T06:41:37.695Z,13.55
2018-06-23T06:42:37.664Z,13.55
2018-06-23T06:43:37.626Z,13.59
2018-06-23T06:44:37.995Z,13.63
2018-06-23T06:45:37.612Z,13.69
2018-06-23T06:46:37.619Z,13.79
2018-06-23T06:47:37.646Z,13.84
2018-06-23T06:48:37.641Z,13.72
2018-06-23T06:49:37.705Z,13.76
2018-06-23T06:50:37.642Z,13.77
2018-06-23T06:51:37.803Z,13.79
2018-06-23T06:52:37.688Z,13.79
2018-06-23T06:53:37.705Z,13.84
2018-06-23T06:54:37.685Z,13.89
2018-06-23T06:55:37.621Z,13.94
2018-06-23T06:56:37.703Z,13.98
2018-06-23T06:57:37.788Z,14.08
2018-06-23T06:58:37.662Z,14.07
2018-06-23T06:59:37.714Z,14.08
2018-06-23T07:00:37.621Z,14.08
2018-06-23T07:01:37.678Z,14.08
2018-06-23T07:02:37.717Z,14.11
2018-06-23T07:03:37.794Z,14.18
2018-06-23T07:04:37.631Z,14.14
2018-06-23T07:05:37.624Z,14.11
2018-06-23T07:06:37.819Z,14.14
2018-06-23T07:07:37.640Z,14.17
2018-06-23T07:08:37.641Z,14.21
2018-06-23T07:09:37.642Z,14.35
2018-06-23T07:10:37.643Z,14.45
2018-06-23T07:11:37.632Z,14.38
2018-06-23T07:12:37.663Z,14.33
2018-06-23T07:13:37.631Z,14.32
2018-06-23T07:14:37.642Z,14.29
2018-06-23T07:15:37.838Z,14.25
2018-06-23T07:16:37.824Z,14.25
2018-06-23T07:17:37.904Z,14.29
2018-06-23T07:18:37.633Z,14.28
2018-06-23T07:19:37.671Z,14.36
2018-06-23T07:20:37.691Z,14.39
2018-06-23T07:21:37.717Z,14.48
2018-06-23T07:22:37.656Z,14.52
2018-06-23T07:23:38.049Z,14.48
2018-06-23T07:24:37.776Z,14.55
2018-06-23T07:25:37.682Z,14.55
2018-06-23T07:26:37.637Z,14.55
2018-06-23T07:27:37.715Z,14.59
2018-06-23T07:28:37.661Z,14.6
2018-06-23T07:29:37.677Z,14.73
2018-06-23T07:30:37.665Z,14.8
2018-06-23T07:31:37.691Z,14.81
2018-06-23T07:32:37.661Z,14.76
2018-06-23T07:33:37.636Z,14.72
2018-06-23T07:34:37.938Z,14.81
2018-06-23T07:35:37.656Z,14.69
2018-06-23T07:36:37.643Z,14.67
2018-06-23T07:37:37.660Z,14.88
2018-06-23T07:38:37.670Z,14.8
2018-06-23T07:39:37.662Z,14.86
2018-06-23T07:40:37.829Z,14.92
2018-06-23T07:41:37.682Z,14.98
2018-06-23T07:42:37.685Z,14.88
2018-06-23T07:43:37.648Z,14.87
2018-06-23T07:44:37.644Z,14.81
2018-06-23T07:45:37.649Z,14.94
2018-06-23T07:46:37.846Z,14.94
2018-06-23T07:47:37.664Z,14.91
2018-06-23T07:48:37.736Z,14.98
2018-06-23T07:49:37.673Z,15.09
2018-06-23T07:50:37.680Z,15.17
2018-06-23T07:51:37.676Z,15.25
2018-06-23T07:52:37.661Z,15.41
2018-06-23T07:53:37.676Z,15.42
2018-06-23T07:54:37.667Z,15.47
2018-06-23T07:55:37.752Z,15.34
2018-06-23T07:56:37.691Z,15.36
2018-06-23T07:57:37.678Z,15.29
2018-06-23T07:58:37.650Z,15.34
2018-06-23T07:59:37.773Z,15.42
2018-06-23T08:00:37.658Z,15.45
2018-06-23T08:01:37.889Z,15.36
2018-06-23T08:02:37.656Z,15.08
2018-06-23T08:03:37.873Z,14.91
2018-06-23T08:04:37.755Z,14.95
2018-06-23T08:05:37.818Z,14.86
2018-06-23T08:06:37.659Z,15
2018-06-23T08:07:37.683Z,15.01
2018-06-23T08:08:37.768Z,15.09
2018-06-23T08:09:37.652Z,15.14
2018-06-23T08:10:37.674Z,15.18
2018-06-23T08:11:37.940Z,15.26
2018-06-23T08:12:37.672Z,15.31
2018-06-23T08:13:37.670Z,15.32
2018-06-23T08:14:37.704Z,15.32
2018-06-23T08:15:37.695Z,15.29
2018-06-23T08:16:37.687Z,15.35
2018-06-23T08:17:37.672Z,15.28
2018-06-23T08:18:37.923Z,15.29
2018-06-23T08:19:37.669Z,15.34
2018-06-23T08:20:37.684Z,15.23
2018-06-23T08:21:37.681Z,15.19
2018-06-23T08:22:37.686Z,15.21
2018-06-23T08:23:37.697Z,15.23
2018-06-23T08:24:37.705Z,15.21
2018-06-23T08:25:37.730Z,15.23
2018-06-23T08:26:37.943Z,15.22
2018-06-23T08:27:37.705Z,15.21
2018-06-23T08:28:37.685Z,15.22
2018-06-23T08:29:37.724Z,15.25
2018-06-23T08:30:37.725Z,15.31
2018-06-23T08:31:37.755Z,15.36
2018-06-23T08:32:37.706Z,15.42
2018-06-23T08:33:37.685Z,15.52
2018-06-23T08:34:37.739Z,15.52
2018-06-23T08:35:37.669Z,15.63
2018-06-23T08:36:37.688Z,15.73
2018-06-23T08:37:37.749Z,15.73
2018-06-23T08:38:37.673Z,15.71
2018-06-23T08:39:37.751Z,15.7
2018-06-23T08:40:37.703Z,15.52
2018-06-23T08:41:37.681Z,15.49
2018-06-23T08:42:37.670Z,15.49
2018-06-23T08:43:37.827Z,15.42
2018-06-23T08:44:37.726Z,15.23
2018-06-23T08:45:37.723Z,15.31
2018-06-23T08:46:37.677Z,15.29
2018-06-23T08:47:37.680Z,15.32
2018-06-23T08:48:37.689Z,15.35
2018-06-23T08:49:37.696Z,15.35
2018-06-23T08:50:37.723Z,15.41
2018-06-23T08:51:37.687Z,15.42
2018-06-23T08:52:37.685Z,15.42
2018-06-23T08:53:37.717Z,15.42
2018-06-23T08:54:37.755Z,15.5
2018-06-23T08:55:37.767Z,15.63
2018-06-23T08:56:42.384Z,15.74
2018-06-23T08:57:37.884Z,15.71
2018-06-23T08:58:37.779Z,15.76
2018-06-23T08:59:37.695Z,15.92
2018-06-23T09:00:37.791Z,15.92
2018-06-23T09:01:37.799Z,15.74
2018-06-23T09:02:37.821Z,15.73
2018-06-23T09:03:37.844Z,15.88
2018-06-23T09:04:37.930Z,15.95
2018-06-23T09:05:37.747Z,15.82
2018-06-23T09:06:37.832Z,15.84
2018-06-23T09:07:37.720Z,15.87
2018-06-23T09:08:37.851Z,15.87
2018-06-23T09:09:37.862Z,15.88
2018-06-23T09:10:37.962Z,15.82
2018-06-23T09:11:37.864Z,15.88
2018-06-23T09:12:38.192Z,15.94
2018-06-23T09:13:37.818Z,15.99
2018-06-23T09:14:38.004Z,15.99
2018-06-23T09:15:37.807Z,16.05
2018-06-23T09:16:37.902Z,16.16
2018-06-23T09:17:37.934Z,16.11
2018-06-23T09:18:37.855Z,16.19
2018-06-23T09:19:39.239Z,16.16
2018-06-23T09:20:37.827Z,16.19
2018-06-23T09:21:37.943Z,16.29
2018-06-23T09:22:37.975Z,16.26
2018-06-23T09:23:37.857Z,16.31
2018-06-23T09:24:37.850Z,16.35
2018-06-23T09:25:38.112Z,16.43
2018-06-23T09:26:37.799Z,16.45
2018-06-23T09:27:37.912Z,16.45
2018-06-23T09:28:37.723Z,16.37
2018-06-23T09:29:37.822Z,16.37
2018-06-23T09:30:37.825Z,16.32
2018-06-23T09:31:37.707Z,16.26
2018-06-23T09:32:37.919Z,16.31
2018-06-23T09:33:37.760Z,16.39
2018-06-23T09:34:37.751Z,16.46
2018-06-23T09:35:37.713Z,16.46
2018-06-23T09:36:37.741Z,16.52
2018-06-23T09:37:37.944Z,16.45
2018-06-23T09:38:37.886Z,16.45
2018-06-23T09:39:37.890Z,16.57
2018-06-23T09:40:37.732Z,16.52
2018-06-23T09:41:38.801Z,16.59
2018-06-23T09:42:37.773Z,16.67
2018-06-23T09:43:37.699Z,16.64
2018-06-23T09:44:37.897Z,16.67
2018-06-23T09:45:37.723Z,16.62
2018-06-23T09:46:38.009Z,16.71
2018-06-23T09:47:37.913Z,16.73
2018-06-23T09:48:37.824Z,16.77
2018-06-23T09:49:37.892Z,16.91
2018-06-23T09:50:37.856Z,16.97
2018-06-23T09:51:37.939Z,17.01
2018-06-23T09:52:37.953Z,16.98
2018-06-23T09:53:37.858Z,16.98
2018-06-23T09:54:37.883Z,17.01
2018-06-23T09:55:37.862Z,17.01
2018-06-23T09:56:37.791Z,16.91
2018-06-23T09:57:37.888Z,16.98
2018-06-23T09:58:37.885Z,16.99
2018-06-23T09:59:37.921Z,17.01
2018-06-23T10:00:37.895Z,17.05
2018-06-23T10:01:37.727Z,17.07
2018-06-23T10:02:37.907Z,17.15
2018-06-23T10:03:37.920Z,17.25
2018-06-23T10:04:37.821Z,17.29
2018-06-23T10:05:37.822Z,17.33
2018-06-23T10:06:37.737Z,17.32
2018-06-23T10:07:37.725Z,17.14
2018-06-23T10:08:38.299Z,17.19
2018-06-23T10:09:37.762Z,17.11
2018-06-23T10:10:37.718Z,17.16
2018-06-23T10:11:37.862Z,17.26
2018-06-23T10:12:37.889Z,17.35
2018-06-23T10:13:37.885Z,17.37
2018-06-23T10:14:37.927Z,17.44
2018-06-23T10:15:37.745Z,17.36
2018-06-23T10:16:38.323Z,17.43
2018-06-23T10:17:38.324Z,17.58
2018-06-23T10:18:37.763Z,17.58
2018-06-23T10:19:37.826Z,17.64
2018-06-23T10:20:38.141Z,17.61
2018-06-23T10:21:37.852Z,17.43
2018-06-23T10:22:38.072Z,17.39
2018-06-23T10:23:37.848Z,17.49
2018-06-23T10:24:38.444Z,17.64
2018-06-23T10:25:37.806Z,17.73
2018-06-23T10:26:37.876Z,17.77
2018-06-23T10:27:37.817Z,17.76
2018-06-23T10:28:37.759Z,17.77
2018-06-23T10:29:37.884Z,17.64
2018-06-23T10:30:37.740Z,17.84
2018-06-23T10:31:37.755Z,17.89
2018-06-23T10:32:38.181Z,17.89
2018-06-23T10:33:37.808Z,18.04
2018-06-23T10:34:37.775Z,17.98
2018-06-23T10:35:37.938Z,17.98
2018-06-23T10:36:37.772Z,17.92
2018-06-23T10:37:37.849Z,18.08
2018-06-23T10:38:38.389Z,18.32
2018-06-23T10:39:37.789Z,18.26
2018-06-23T10:40:37.936Z,18.04
2018-06-23T10:41:37.871Z,18.11
2018-06-23T10:42:37.774Z,18.16
2018-06-23T10:43:37.847Z,18.23
2018-06-23T10:44:37.793Z,18.4
2018-06-23T10:45:37.901Z,18.37
2018-06-23T10:46:37.768Z,18.35
2018-06-23T10:47:38.021Z,18.44
2018-06-23T10:48:37.792Z,18.47
2018-06-23T10:49:37.764Z,18.42
2018-06-23T10:50:38.139Z,18.15
2018-06-23T10:51:37.973Z,17.98
2018-06-23T10:52:37.947Z,18.16
2018-06-23T10:53:38.052Z,18.2
2018-06-23T10:54:37.857Z,18.2
2018-06-23T10:55:37.872Z,18.22
2018-06-23T10:56:38.014Z,18.32
2018-06-23T10:57:37.738Z,18.42
2018-06-23T10:58:37.964Z,18.56
2018-06-23T10:59:38.050Z,18.71
2018-06-23T11:00:37.910Z,18.71
2018-06-23T11:01:37.870Z,18.72
2018-06-23T11:02:37.950Z,18.82
2018-06-23T11:03:37.945Z,18.78
2018-06-23T11:04:38.139Z,18.75
2018-06-23T11:05:37.983Z,18.71
2018-06-23T11:06:37.766Z,18.75
2018-06-23T11:07:37.807Z,18.75
2018-06-23T11:08:37.860Z,18.72
2018-06-23T11:09:37.799Z,18.74
2018-06-23T11:10:37.788Z,18.53
2018-06-23T11:11:37.894Z,18.43
2018-06-23T11:12:37.770Z,18.54
2018-06-23T11:13:37.778Z,18.64
2018-06-23T11:14:37.893Z,18.75
2018-06-23T11:15:37.891Z,18.72
2018-06-23T11:16:37.776Z,18.87
2018-06-23T11:17:37.817Z,18.64
2018-06-23T11:18:37.932Z,18.72
2018-06-23T11:19:38.006Z,18.84
2018-06-23T11:20:37.937Z,18.85
2018-06-23T11:21:37.809Z,19.01
2018-06-23T11:22:37.826Z,18.98
2018-06-23T11:23:37.964Z,18.87
2018-06-23T11:24:38.439Z,18.88
2018-06-23T11:25:38.031Z,18.67
2018-06-23T11:26:37.780Z,18.78
2018-06-23T11:27:37.848Z,19.21
2018-06-23T11:28:37.980Z,18.87
2018-06-23T11:29:37.890Z,18.99
2018-06-23T11:30:38.002Z,19.08
2018-06-23T11:31:37.834Z,19.09
2018-06-23T11:32:37.912Z,19.03
2018-06-23T11:33:37.800Z,19.06
2018-06-23T11:34:37.820Z,19.08
2018-06-23T11:35:37.930Z,19.21
2018-06-23T11:36:37.815Z,18.98
2018-06-23T11:37:37.882Z,19.06
2018-06-23T11:38:37.797Z,19.01
2018-06-23T11:39:37.862Z,19.22
2018-06-23T11:40:38.170Z,19.33
2018-06-23T11:41:42.991Z,19.36
2018-06-23T11:42:37.999Z,19.33
2018-06-23T11:43:37.790Z,19.37
2018-06-23T11:44:37.799Z,19.4
2018-06-23T11:45:37.841Z,19.25
2018-06-23T11:46:38.183Z,19.23
2018-06-23T11:47:38.019Z,19.01
2018-06-23T11:48:37.913Z,19.25
2018-06-23T11:49:37.798Z,19.39
2018-06-23T11:50:38.069Z,19.4
2018-06-23T11:51:37.841Z,19.42
2018-06-23T11:52:38.087Z,19.56
2018-06-23T11:53:37.853Z,19.49
2018-06-23T11:54:38.098Z,19.36
2018-06-23T11:55:38.109Z,19.37
2018-06-23T11:56:38.131Z,19.49
2018-06-23T11:57:38.189Z,19.6
2018-06-23T11:58:37.853Z,19.57
2018-06-23T11:59:37.896Z,19.68
2018-06-23T12:00:37.861Z,19.99
2018-06-23T12:01:37.812Z,20.08
2018-06-23T12:02:37.944Z,20.05
2018-06-23T12:03:37.863Z,20.02
2018-06-23T12:04:37.961Z,20.09
2018-06-23T12:05:38.142Z,20.12
2018-06-23T12:06:37.943Z,20.16
2018-06-23T12:07:37.973Z,20.23
2018-06-23T12:08:37.954Z,20.26
2018-06-23T12:09:37.822Z,20.39
2018-06-23T12:10:37.991Z,20.43
2018-06-23T12:11:38.180Z,20.52
2018-06-23T12:12:37.812Z,20.4
2018-06-23T12:13:38.914Z,20.4
2018-06-23T12:14:37.893Z,20.4
2018-06-23T12:15:37.818Z,20.51
2018-06-23T12:16:37.833Z,20.6
2018-06-23T12:17:37.916Z,20.68
2018-06-23T12:18:37.816Z,20.77
2018-06-23T12:19:37.810Z,20.67
2018-06-23T12:20:37.955Z,20.67
2018-06-23T12:21:37.831Z,20.54
2018-06-23T12:22:37.848Z,20.52
2018-06-23T12:23:37.859Z,20.54
2018-06-23T12:24:37.961Z,20.5
2018-06-23T12:25:37.838Z,20.6
2018-06-23T12:26:37.877Z,20.62
2018-06-23T12:27:37.981Z,20.54
2018-06-23T12:28:37.833Z,20.43
2018-06-23T12:29:38.002Z,20.46
2018-06-23T12:30:37.820Z,20.68
2018-06-23T12:31:37.937Z,20.62
2018-06-23T12:32:37.924Z,20.68
2018-06-23T12:33:38.075Z,20.52
2018-06-23T12:34:37.925Z,20.29
2018-06-23T12:35:38.133Z,20.29
2018-06-23T12:36:38.143Z,20.27
2018-06-23T12:37:37.866Z,20.32
2018-06-23T12:38:37.966Z,20.33
2018-06-23T12:39:38.068Z,20.51
2018-06-23T12:40:38.003Z,20.74
2018-06-23T12:41:38.390Z,21.02
2018-06-23T12:42:37.884Z,20.94
2018-06-23T12:43:37.937Z,20.89
2018-06-23T12:44:38.095Z,21.02
2018-06-23T12:45:37.901Z,21.03
2018-06-23T12:46:37.953Z,20.99
2018-06-23T12:47:38.017Z,20.94
2018-06-23T12:48:37.971Z,21.05
2018-06-23T12:49:37.832Z,21.02
2018-06-23T12:50:38.045Z,20.82
2018-06-23T12:51:37.942Z,20.68
2018-06-23T12:52:37.858Z,20.68
2018-06-23T12:53:37.941Z,20.61
2018-06-23T12:54:37.970Z,20.77
2018-06-23T12:55:37.978Z,21.01